createdAt,value
2023-01-17T00:02:01.264Z,1.67
2023-01-17T00:04:47.923Z,1.63
2023-01-17T00:07:36.393Z,1.62
2023-01-17T00:10:08.691Z,1.60
2023-01-17T00:12:37.595Z,1.62
2023-01-17T00:15:09.989Z,1.62
2023-01-17T00:17:38.286Z,1.61
2023-01-17T00:20:26.176Z,1.61
2023-01-17T00:23:12.238Z,1.58
2023-01-17T00:25:59.816Z,1.60
2023-01-17T00:28:27.819Z,1.58
2023-01-17T00:30:56.470Z,1.51
2023-01-17T00:33:24.581Z,1.60
2023-01-17T00:35:53.088Z,1.57
2023-01-17T00:38:22.269Z,1.63
2023-01-17T00:40:50.928Z,1.62
2023-01-17T00:43:40.020Z,1.62
2023-01-17T00:46:27.351Z,1.60
2023-01-17T00:49:13.462Z,1.58
2023-01-17T00:51:59.464Z,1.60
2023-01-17T00:54:45.674Z,1.57
2023-01-17T00:57:31.780Z,1.56
2023-01-17T01:00:17.930Z,1.59
2023-01-17T01:03:04.966Z,1.57
2023-01-17T01:05:51.160Z,1.56
2023-01-17T01:08:40.532Z,1.54
2023-01-17T01:11:29.576Z,1.50
2023-01-17T01:14:16.136Z,1.48
2023-01-17T01:17:02.071Z,1.46
2023-01-17T01:19:49.399Z,1.55
2023-01-17T01:22:35.234Z,1.49
2023-01-17T01:25:21.469Z,1.56
2023-01-17T01:28:07.530Z,1.58
2023-01-17T01:30:53.715Z,1.61
2023-01-17T01:33:21.239Z,1.56
2023-01-17T01:35:53.699Z,1.61
2023-01-17T01:38:24.389Z,1.59
2023-01-17T01:40:55.311Z,1.59
2023-01-17T01:43:44.335Z,1.57
2023-01-17T01:46:17.074Z,1.58
2023-01-17T01:48:50.595Z,1.61
2023-01-17T01:51:25.207Z,1.63
2023-01-17T01:54:00.631Z,1.63
2023-01-17T01:56:30.284Z,1.64
2023-01-17T01:59:00.579Z,1.63
2023-01-17T02:01:31.024Z,1.67
2023-01-17T02:03:59.560Z,1.66
2023-01-17T02:06:33.547Z,1.67
2023-01-17T02:09:06.322Z,1.68
2023-01-17T02:11:36.166Z,1.67
2023-01-17T02:14:04.786Z,1.68
2023-01-17T02:16:48.821Z,1.69
2023-01-17T02:20:16.500Z,1.70
2023-01-17T02:23:34.064Z,1.72
2023-01-17T02:26:49.382Z,1.70
2023-01-17T02:30:21.601Z,1.69
2023-01-17T02:33:02.928Z,1.71
2023-01-17T02:35:41.923Z,1.71
2023-01-17T02:38:23.972Z,1.70
2023-01-17T02:40:58.614Z,1.73
2023-01-17T02:43:27.472Z,1.76
2023-01-17T02:45:55.781Z,1.74
2023-01-17T02:48:29.798Z,1.70
2023-01-17T02:51:29.149Z,1.68
2023-01-17T02:54:43.706Z,1.66
2023-01-17T02:57:28.527Z,1.64
2023-01-17T03:00:06.641Z,1.65
2023-01-17T03:02:44.823Z,1.64
2023-01-17T03:05:20.381Z,1.63
2023-01-17T03:07:50.885Z,1.62
2023-01-17T03:10:21.040Z,1.62
2023-01-17T03:12:49.411Z,1.63
2023-01-17T03:15:18.716Z,1.63
2023-01-17T03:17:50.526Z,1.62
2023-01-17T03:20:22.544Z,1.61
2023-01-17T03:22:51.504Z,1.64
2023-01-17T03:25:19.865Z,1.60
2023-01-17T03:27:48.578Z,1.57
2023-01-17T03:30:17.868Z,1.57
2023-01-17T03:32:46.064Z,1.57
2023-01-17T03:35:14.530Z,1.62
2023-01-17T03:37:44.297Z,1.62
2023-01-17T03:40:13.380Z,1.58
2023-01-17T03:42:41.791Z,1.59
2023-01-17T03:45:11.419Z,1.56
2023-01-17T03:47:39.918Z,1.56
2023-01-17T03:50:09.358Z,1.51
2023-01-17T03:52:37.717Z,1.46
2023-01-17T03:55:08.765Z,1.29
2023-01-17T03:57:37.596Z,1.07
2023-01-17T04:00:07.326Z,0.93
2023-01-17T04:02:35.730Z,0.84
2023-01-17T04:05:04.580Z,0.80
2023-01-17T04:07:32.803Z,0.77
2023-01-17T04:10:01.319Z,0.79
2023-01-17T04:12:30.990Z,0.76
2023-01-17T04:14:59.346Z,0.72
2023-01-17T04:17:27.633Z,0.71
2023-01-17T04:19:55.842Z,0.79
2023-01-17T04:22:24.044Z,0.79
2023-01-17T04:24:52.298Z,0.82
2023-01-17T04:27:20.530Z,0.83
2023-01-17T04:29:50.204Z,0.85
2023-01-17T04:32:18.846Z,0.83
2023-01-17T04:34:47.225Z,0.83
2023-01-17T04:37:15.415Z,0.81
2023-01-17T04:39:43.645Z,0.81
2023-01-17T04:42:12.062Z,0.86
2023-01-17T04:44:40.316Z,0.84
2023-01-17T04:47:09.935Z,0.87
2023-01-17T04:49:38.334Z,0.87
2023-01-17T04:52:06.866Z,0.86
2023-01-17T04:54:35.268Z,0.88
2023-01-17T04:57:03.686Z,0.89
2023-01-17T04:59:32.000Z,0.88
2023-01-17T05:02:00.313Z,0.87
2023-01-17T05:04:30.039Z,0.87
2023-01-17T05:06:58.392Z,0.88
2023-01-17T05:09:26.761Z,0.90
2023-01-17T05:11:55.831Z,0.88
2023-01-17T05:14:26.246Z,0.87
2023-01-17T05:16:54.684Z,0.86
2023-01-17T05:19:23.286Z,0.90
2023-01-17T05:21:53.321Z,0.93
2023-01-17T05:24:22.031Z,0.91
2023-01-17T05:26:54.750Z,0.93
2023-01-17T05:29:23.439Z,0.96
2023-01-17T05:31:51.883Z,0.97
2023-01-17T05:34:20.134Z,0.97
2023-01-17T05:36:48.555Z,0.98
2023-01-17T05:39:18.434Z,1.02
2023-01-17T05:41:47.692Z,1.05
2023-01-17T05:44:16.247Z,1.03
2023-01-17T05:46:45.166Z,1.04
2023-01-17T05:49:13.533Z,1.01
2023-01-17T05:51:41.836Z,1.06
2023-01-17T05:54:10.181Z,1.07
2023-01-17T05:56:40.034Z,1.09
2023-01-17T05:59:08.583Z,1.06
2023-01-17T06:01:36.900Z,1.05
2023-01-17T06:04:05.412Z,1.00
2023-01-17T06:06:34.251Z,0.97
2023-01-17T06:09:02.549Z,0.95
2023-01-17T06:11:31.746Z,0.90
2023-01-17T06:14:01.450Z,0.89
2023-01-17T06:16:30.891Z,0.86
2023-01-17T06:18:59.213Z,0.83
2023-01-17T06:21:27.584Z,0.83
2023-01-17T06:23:56.426Z,0.82
2023-01-17T06:26:25.078Z,0.83
2023-01-17T06:28:53.347Z,0.83
2023-01-17T06:31:23.031Z,0.85
2023-01-17T06:33:51.344Z,0.84
2023-01-17T06:36:19.797Z,0.82
2023-01-17T06:38:51.694Z,0.83
2023-01-17T06:41:20.269Z,0.81
2023-01-17T06:43:49.096Z,0.80
2023-01-17T06:46:17.497Z,0.79
2023-01-17T06:48:48.657Z,0.80
2023-01-17T06:51:17.656Z,0.76
2023-01-17T06:53:46.179Z,0.75
2023-01-17T06:56:14.539Z,0.71
2023-01-17T06:58:43.088Z,0.70
2023-01-17T07:01:13.824Z,0.68
2023-01-17T07:03:42.837Z,0.65
2023-01-17T07:06:12.530Z,0.64
2023-01-17T07:08:41.261Z,0.63
2023-01-17T07:11:09.698Z,0.59
2023-01-17T07:13:39.304Z,0.60
2023-01-17T07:16:09.422Z,0.55
2023-01-17T07:18:37.714Z,0.55
2023-01-17T07:21:06.259Z,0.54
2023-01-17T07:23:36.081Z,0.53
2023-01-17T07:26:04.612Z,0.55
2023-01-17T07:28:33.087Z,0.52
2023-01-17T07:31:07.965Z,0.52
2023-01-17T07:33:36.609Z,0.51
2023-01-17T07:36:07.691Z,0.54
2023-01-17T07:38:37.643Z,0.55
2023-01-17T07:41:06.386Z,0.56
2023-01-17T07:43:36.468Z,0.58
2023-01-17T07:46:07.834Z,0.62
2023-01-17T07:48:36.171Z,0.63
2023-01-17T07:51:06.499Z,0.60
2023-01-17T07:53:34.790Z,0.61
2023-01-17T07:56:06.302Z,0.60
2023-01-17T07:58:35.456Z,0.61
2023-01-17T08:01:05.309Z,0.68
2023-01-17T08:03:36.519Z,0.70
2023-01-17T08:06:05.544Z,0.73
2023-01-17T08:08:33.951Z,0.63
2023-01-17T08:11:02.316Z,0.69
2023-01-17T08:13:32.098Z,0.71
2023-01-17T08:16:02.342Z,0.77
2023-01-17T08:18:31.121Z,0.76
2023-01-17T08:20:59.476Z,0.75
2023-01-17T08:23:28.395Z,0.75
2023-01-17T08:26:01.743Z,0.73
2023-01-17T08:28:31.376Z,0.75
2023-01-17T08:30:59.776Z,0.78
2023-01-17T08:33:28.038Z,0.74
2023-01-17T08:35:56.899Z,0.77
2023-01-17T08:38:25.480Z,0.80
2023-01-17T08:40:54.111Z,0.85
2023-01-17T08:43:22.434Z,0.86
2023-01-17T08:45:55.867Z,0.92
2023-01-17T08:48:24.189Z,0.92
2023-01-17T08:50:52.970Z,0.96
2023-01-17T08:53:23.249Z,0.95
2023-01-17T08:55:59.526Z,0.97
2023-01-17T08:58:30.587Z,0.99
2023-01-17T09:01:03.591Z,0.99
2023-01-17T09:03:32.816Z,1.04
2023-01-17T09:06:06.777Z,1.11
2023-01-17T09:08:36.112Z,1.19
2023-01-17T09:11:05.750Z,1.17
2023-01-17T09:13:34.361Z,1.27
2023-01-17T09:16:05.473Z,1.29
2023-01-17T09:18:36.170Z,1.33
2023-01-17T09:21:12.336Z,1.32
2023-01-17T09:23:40.637Z,1.32
2023-01-17T09:26:09.032Z,1.32
2023-01-17T09:28:41.041Z,1.35
2023-01-17T09:31:11.251Z,1.37
2023-01-17T09:33:41.628Z,1.40
2023-01-17T09:36:10.617Z,1.42
2023-01-17T09:38:40.001Z,1.45
2023-01-17T09:41:22.982Z,1.48
2023-01-17T09:43:55.733Z,1.53
2023-01-17T09:46:30.804Z,1.53
2023-01-17T09:49:04.451Z,1.56
2023-01-17T09:51:33.468Z,1.62
2023-01-17T09:54:02.811Z,1.62
2023-01-17T09:56:36.996Z,1.65
2023-01-17T09:59:32.704Z,1.67
2023-01-17T10:02:37.017Z,1.78
2023-01-17T10:05:27.031Z,1.78
2023-01-17T10:08:14.291Z,1.79
2023-01-17T10:10:48.557Z,1.85
2023-01-17T10:13:31.409Z,1.88
2023-01-17T10:16:16.386Z,1.96
2023-01-17T10:19:26.474Z,2.03
2023-01-17T10:22:07.507Z,2.11
2023-01-17T10:25:17.322Z,2.23
2023-01-17T10:27:55.197Z,2.20
2023-01-17T10:30:30.383Z,2.18
2023-01-17T10:33:03.848Z,2.24
2023-01-17T10:35:38.064Z,2.33
2023-01-17T10:38:13.523Z,2.34
2023-01-17T10:40:50.297Z,2.46
2023-01-17T10:43:26.437Z,2.46
2023-01-17T10:45:57.428Z,2.45
2023-01-17T10:48:38.682Z,2.50
2023-01-17T10:51:27.471Z,2.55
2023-01-17T10:54:10.502Z,2.69
2023-01-17T10:56:41.586Z,2.72
2023-01-17T10:59:22.806Z,2.80
2023-01-17T11:01:51.481Z,2.92
2023-01-17T11:04:23.511Z,2.98
2023-01-17T11:07:13.666Z,2.97
2023-01-17T11:09:44.340Z,3.05
2023-01-17T11:12:28.576Z,3.14
2023-01-17T11:15:07.572Z,3.23
2023-01-17T11:17:38.842Z,3.29
2023-01-17T11:20:11.047Z,3.27
2023-01-17T11:22:41.029Z,3.27
2023-01-17T11:25:23.222Z,3.34
2023-01-17T11:28:02.706Z,3.34
2023-01-17T11:30:31.056Z,3.51
2023-01-17T11:33:01.129Z,3.55
2023-01-17T11:35:31.200Z,3.58
2023-01-17T11:38:08.146Z,3.58
2023-01-17T11:40:42.549Z,3.61
2023-01-17T11:43:23.131Z,3.60
2023-01-17T11:46:18.131Z,3.60
2023-01-17T11:48:53.449Z,3.68
2023-01-17T11:51:28.250Z,3.72
2023-01-17T11:54:17.653Z,3.70
2023-01-17T11:56:46.397Z,3.82
2023-01-17T11:59:28.672Z,3.81
2023-01-17T12:02:31.919Z,3.85
2023-01-17T12:05:24.468Z,3.89
2023-01-17T12:08:00.050Z,4.01
2023-01-17T12:10:37.988Z,4.17
2023-01-17T12:13:31.049Z,4.19
2023-01-17T12:16:28.969Z,4.38
2023-01-17T12:19:28.685Z,4.80
2023-01-17T12:22:14.070Z,5.02
2023-01-17T12:25:03.454Z,5.32
2023-01-17T12:27:43.658Z,5.34
2023-01-17T12:30:34.477Z,5.28
2023-01-17T12:33:20.949Z,5.28
2023-01-17T12:35:53.889Z,5.23
2023-01-17T12:38:32.788Z,5.22
2023-01-17T12:41:09.703Z,5.14
2023-01-17T12:43:42.465Z,5.30
2023-01-17T12:46:21.048Z,5.23
2023-01-17T12:48:52.910Z,5.31
2023-01-17T12:51:27.704Z,5.35
2023-01-17T12:54:04.216Z,5.39
2023-01-17T12:56:37.634Z,5.47
2023-01-17T12:59:17.856Z,5.44
2023-01-17T13:01:57.452Z,5.48
2023-01-17T13:04:30.741Z,5.50
2023-01-17T13:07:11.283Z,5.48
2023-01-17T13:09:47.293Z,5.47
2023-01-17T13:12:19.149Z,5.44
2023-01-17T13:14:49.840Z,5.37
2023-01-17T13:17:36.030Z,5.29
2023-01-17T13:20:14.335Z,5.24
2023-01-17T13:22:44.444Z,5.23
2023-01-17T13:25:30.788Z,5.14
2023-01-17T13:28:19.913Z,5.05
2023-01-17T13:31:22.226Z,5.04
2023-01-17T13:34:16.122Z,5.02
2023-01-17T13:37:04.611Z,5.02
2023-01-17T13:39:55.961Z,5.06
2023-01-17T13:42:30.560Z,5.01
2023-01-17T13:44:59.452Z,4.98
2023-01-17T13:47:41.562Z,4.97
2023-01-17T13:50:50.917Z,4.93
2023-01-17T13:53:56.313Z,4.97
2023-01-17T13:56:35.706Z,4.94
2023-01-17T13:59:27.751Z,4.91
2023-01-17T14:01:56.606Z,4.89
2023-01-17T14:05:05.521Z,4.88
2023-01-17T14:07:36.247Z,4.85
2023-01-17T14:10:34.370Z,4.80
2023-01-17T14:13:05.324Z,4.79
2023-01-17T14:15:36.236Z,4.79
2023-01-17T14:18:08.311Z,4.76
2023-01-17T14:21:07.332Z,4.71
2023-01-17T14:23:50.884Z,4.72
2023-01-17T14:26:33.311Z,4.70
2023-01-17T14:30:03.898Z,4.64
2023-01-17T14:32:36.264Z,4.61
2023-01-17T14:35:06.485Z,4.58
2023-01-17T14:37:45.725Z,4.50
2023-01-17T14:40:25.970Z,4.53
2023-01-17T14:43:01.997Z,4.50
2023-01-17T14:45:33.168Z,4.51
2023-01-17T14:48:05.913Z,4.45
2023-01-17T14:50:38.986Z,4.46
2023-01-17T14:53:18.017Z,4.46
2023-01-17T14:55:56.598Z,4.38
2023-01-17T14:58:27.784Z,4.36
2023-01-17T15:01:01.027Z,4.39
2023-01-17T15:03:31.630Z,4.37
2023-01-17T15:06:12.182Z,4.38
2023-01-17T15:08:41.881Z,4.34
2023-01-17T15:11:18.581Z,4.29
2023-01-17T15:13:50.129Z,4.22
2023-01-17T15:16:23.016Z,4.25
2023-01-17T15:18:51.973Z,4.23
2023-01-17T15:21:23.980Z,4.22
2023-01-17T15:23:56.469Z,4.17
2023-01-17T15:26:28.176Z,4.14
2023-01-17T15:29:05.269Z,4.14
2023-01-17T15:31:43.492Z,4.05
2023-01-17T15:34:25.172Z,4.08
2023-01-17T15:36:56.848Z,3.98
2023-01-17T15:39:30.146Z,3.99
2023-01-17T15:42:01.591Z,4.03
2023-01-17T15:44:47.574Z,3.93
2023-01-17T15:47:30.354Z,3.90
2023-01-17T15:49:59.561Z,3.85
2023-01-17T15:52:29.144Z,3.86
2023-01-17T15:55:14.420Z,3.83
2023-01-17T15:57:48.483Z,3.77
2023-01-17T16:00:26.417Z,3.76
2023-01-17T16:02:57.707Z,3.73
2023-01-17T16:05:47.091Z,3.73
2023-01-17T16:08:52.942Z,3.68
2023-01-17T16:11:22.619Z,3.70
2023-01-17T16:13:50.893Z,3.68
2023-01-17T16:16:25.866Z,3.65
2023-01-17T16:19:00.936Z,3.60
2023-01-17T16:21:31.399Z,3.57
2023-01-17T16:24:01.359Z,3.56
2023-01-17T16:26:31.204Z,3.50
2023-01-17T16:28:59.479Z,3.52
2023-01-17T16:31:28.027Z,3.53
2023-01-17T16:33:56.421Z,3.54
2023-01-17T16:36:24.737Z,3.52
2023-01-17T16:38:53.725Z,3.50
2023-01-17T16:41:25.156Z,3.49
2023-01-17T16:44:03.422Z,3.49
2023-01-17T16:46:32.316Z,3.50
2023-01-17T16:49:02.076Z,3.49
2023-01-17T16:51:30.401Z,3.53
2023-01-17T16:53:59.495Z,3.51
2023-01-17T16:56:27.944Z,3.52
2023-01-17T16:58:56.681Z,3.47
2023-01-17T17:01:26.428Z,3.46
2023-01-17T17:03:55.040Z,3.46
2023-01-17T17:06:23.907Z,3.47
2023-01-17T17:08:52.322Z,3.48
2023-01-17T17:11:23.875Z,3.46
2023-01-17T17:13:53.465Z,3.44
2023-01-17T17:16:24.155Z,3.46
2023-01-17T17:18:59.603Z,3.43
2023-01-17T17:21:29.526Z,3.41
2023-01-17T17:24:00.005Z,3.37
2023-01-17T17:26:31.841Z,3.37
2023-01-17T17:29:00.277Z,3.38
2023-01-17T17:31:28.949Z,3.42
2023-01-17T17:34:01.855Z,3.40
2023-01-17T17:36:31.283Z,3.41
2023-01-17T17:39:00.103Z,3.42
2023-01-17T17:41:30.785Z,3.35
2023-01-17T17:44:01.144Z,3.35
2023-01-17T17:46:30.678Z,3.34
2023-01-17T17:49:01.428Z,3.27
2023-01-17T17:51:32.615Z,3.13
2023-01-17T17:54:03.137Z,3.06
2023-01-17T17:56:33.439Z,3.00
2023-01-17T17:59:03.390Z,2.88
2023-01-17T18:01:32.126Z,2.84
2023-01-17T18:04:04.709Z,2.73
2023-01-17T18:06:34.395Z,2.67
2023-01-17T18:09:03.353Z,2.62
2023-01-17T18:11:32.156Z,2.58
2023-01-17T18:14:03.814Z,2.55
2023-01-17T18:16:35.601Z,2.49
2023-01-17T18:19:06.335Z,2.46
2023-01-17T18:21:37.548Z,2.44
2023-01-17T18:24:09.331Z,2.41
2023-01-17T18:26:40.285Z,2.43
2023-01-17T18:29:11.327Z,2.44
2023-01-17T18:31:39.810Z,2.42
2023-01-17T18:34:12.098Z,2.41
2023-01-17T18:36:41.028Z,2.40
2023-01-17T18:39:14.604Z,2.37
2023-01-17T18:41:43.768Z,2.37
2023-01-17T18:44:12.613Z,2.38
2023-01-17T18:46:42.161Z,2.37
2023-01-17T18:49:19.168Z,2.38
2023-01-17T18:51:50.735Z,2.39
2023-01-17T18:54:20.109Z,2.37
2023-01-17T18:56:49.207Z,2.38
2023-01-17T18:59:18.452Z,2.37
2023-01-17T19:01:47.283Z,2.35
2023-01-17T19:04:18.022Z,2.32
2023-01-17T19:06:48.408Z,2.32
2023-01-17T19:09:17.644Z,2.30
2023-01-17T19:11:47.536Z,2.26
2023-01-17T19:14:16.063Z,2.22
2023-01-17T19:16:45.028Z,2.19
2023-01-17T19:19:19.773Z,2.22
2023-01-17T19:21:51.313Z,2.23
2023-01-17T19:24:20.099Z,2.28
2023-01-17T19:26:53.187Z,2.24
2023-01-17T19:29:22.504Z,2.19
2023-01-17T19:31:50.961Z,2.16
2023-01-17T19:34:20.791Z,2.19
2023-01-17T19:36:49.181Z,2.17
2023-01-17T19:39:17.499Z,2.14
2023-01-17T19:41:47.313Z,2.13
2023-01-17T19:44:16.438Z,2.10
2023-01-17T19:46:46.208Z,2.09
2023-01-17T19:49:16.300Z,2.02
2023-01-17T19:51:46.272Z,2.04
2023-01-17T19:54:15.101Z,2.04
2023-01-17T19:56:43.551Z,2.04
2023-01-17T19:59:13.686Z,2.03
2023-01-17T20:01:42.285Z,1.99
2023-01-17T20:04:12.736Z,2.00
2023-01-17T20:06:41.373Z,1.97
2023-01-17T20:09:11.570Z,1.98
2023-01-17T20:11:49.966Z,1.97
2023-01-17T20:14:44.347Z,1.95
2023-01-17T20:17:12.742Z,1.92
2023-01-17T20:19:40.980Z,1.91
2023-01-17T20:22:09.366Z,1.90
2023-01-17T20:24:46.065Z,1.89
2023-01-17T20:27:15.235Z,1.85
2023-01-17T20:29:45.343Z,1.85
2023-01-17T20:32:13.660Z,1.84
2023-01-17T20:34:44.066Z,1.83
2023-01-17T20:37:13.823Z,1.83
2023-01-17T20:39:43.650Z,1.83
2023-01-17T20:42:12.017Z,1.83
2023-01-17T20:44:40.644Z,1.83
2023-01-17T20:47:09.113Z,1.81
2023-01-17T20:49:37.437Z,1.77
2023-01-17T20:52:06.402Z,1.79
2023-01-17T20:54:35.592Z,1.74
2023-01-17T20:57:05.471Z,1.75
2023-01-17T20:59:33.725Z,1.70
2023-01-17T21:02:02.382Z,1.70
2023-01-17T21:04:31.089Z,1.65
2023-01-17T21:06:59.364Z,1.64
2023-01-17T21:09:27.673Z,1.63
2023-01-17T21:12:01.187Z,1.62
2023-01-17T21:14:31.259Z,1.65
2023-01-17T21:16:59.875Z,1.60
2023-01-17T21:19:28.452Z,1.56
2023-01-17T21:21:57.350Z,1.57
2023-01-17T21:24:25.928Z,1.56
2023-01-17T21:26:54.111Z,1.54
2023-01-17T21:29:28.721Z,1.52
2023-01-17T21:31:58.603Z,1.55
2023-01-17T21:34:27.537Z,1.55
2023-01-17T21:36:56.014Z,1.50
2023-01-17T21:39:24.663Z,1.46
2023-01-17T21:41:53.344Z,1.51
2023-01-17T21:44:23.558Z,1.51
2023-01-17T21:46:56.007Z,1.48
2023-01-17T21:49:26.237Z,1.45
2023-01-17T21:52:12.080Z,1.48
2023-01-17T21:54:57.679Z,1.48
2023-01-17T21:57:43.826Z,1.44
2023-01-17T22:00:15.512Z,1.48
2023-01-17T22:02:44.555Z,1.45
2023-01-17T22:05:16.409Z,1.40
2023-01-17T22:08:05.797Z,1.43
2023-01-17T22:10:44.312Z,1.42
2023-01-17T22:13:14.487Z,1.41
2023-01-17T22:15:42.853Z,1.42
2023-01-17T22:18:11.697Z,1.38
2023-01-17T22:20:42.759Z,1.39
2023-01-17T22:23:11.825Z,1.38
2023-01-17T22:25:40.023Z,1.39
2023-01-17T22:28:08.311Z,1.38
2023-01-17T22:30:37.177Z,1.40
2023-01-17T22:33:05.720Z,1.38
2023-01-17T22:35:33.950Z,1.37
2023-01-17T22:38:03.637Z,1.32
2023-01-17T22:40:32.843Z,1.28
2023-01-17T22:43:01.150Z,1.28
2023-01-17T22:45:29.564Z,1.27
2023-01-17T22:47:58.036Z,1.23
2023-01-17T22:50:26.226Z,1.23
2023-01-17T22:52:54.933Z,1.21
2023-01-17T22:55:24.683Z,1.25
2023-01-17T22:57:53.076Z,1.26
2023-01-17T23:00:21.766Z,1.27
2023-01-17T23:02:50.078Z,1.23
2023-01-17T23:05:18.473Z,1.22
2023-01-17T23:07:51.072Z,1.24
2023-01-17T23:10:33.407Z,1.24
2023-01-17T23:13:03.193Z,1.23
2023-01-17T23:15:49.084Z,1.23
2023-01-17T23:18:35.164Z,1.21
2023-01-17T23:21:03.415Z,1.21
2023-01-17T23:23:33.264Z,1.17
2023-01-17T23:26:02.148Z,1.16
2023-01-17T23:28:30.968Z,1.19
2023-01-17T23:31:04.873Z,1.17
2023-01-17T23:33:33.335Z,1.14
2023-01-17T23:36:01.621Z,1.14
2023-01-17T23:38:30.273Z,1.12
2023-01-17T23:41:21.078Z,1.14
2023-01-17T23:43:54.770Z,1.13
2023-01-17T23:46:23.929Z,1.13
2023-01-17T23:48:52.861Z,1.13
2023-01-17T23:51:21.252Z,1.08
2023-01-17T23:53:50.950Z,1.08
2023-01-17T23:56:23.181Z,1.07
2023-01-17T23:58:52.869Z,1.10
